Time;durP1;ratioP1;P1;durP2;ratioP2;P2;SDS_P1;SDS_P2;PMS_P1;PMS_P2;Temp;Humidity;BMP_temperature;BMP_pressure;BME280_temperature;BME280_humidity;BME280_pressure;Samples;Min_cycle;Max_cycle;Signal;HPM_P1;HPM_P2
2023/08/20 00:01:03;;;;;;;5.30;3.92;;;;;;;18.39;98.26;93296.84;5069098;28;20052;-74
2023/08/20 00:03:30;;;;;;;6.60;4.28;;;;;;;18.32;98.82;93306.72;5060892;28;20389;-74
2023/08/20 00:05:59;;;;;;;5.80;4.32;;;;;;;18.25;98.46;93275.75;5056195;28;20102;-74
2023/08/20 00:08:26;;;;;;;6.90;4.40;;;;;;;18.29;99.69;93295.00;5054950;28;20040;-74
2023/08/20 00:10:53;;;;;;;5.93;4.10;;;;;;;18.22;99.17;93299.63;5065018;28;20049;-74
2023/08/20 00:13:19;;;;;;;5.82;3.95;;;;;;;18.20;99.64;93292.09;5054007;28;20448;-74
2023/08/20 00:15:47;;;;;;;5.13;3.78;;;;;;;18.21;98.96;93293.66;5056288;28;20102;-74
2023/08/20 00:18:14;;;;;;;6.00;4.15;;;;;;;18.20;99.81;93296.53;5055441;28;20595;-74
2023/08/20 00:20:41;;;;;;;6.53;4.10;;;;;;;18.06;99.71;93289.19;5055702;28;20094;-74
2023/08/20 00:23:10;;;;;;;5.50;4.28;;;;;;;18.08;99.89;93287.13;5057122;28;20057;-74
2023/08/20 00:25:38;;;;;;;5.40;3.63;;;;;;;18.08;99.34;93289.72;5052281;28;20049;-74
2023/08/20 00:28:05;;;;;;;5.25;3.50;;;;;;;18.06;99.81;93297.00;5068809;28;20101;-75
2023/08/20 00:30:32;;;;;;;6.18;4.00;;;;;;;18.01;100.00;93282.13;5053532;28;20098;-75
2023/08/20 00:32:59;;;;;;;6.45;4.20;;;;;;;18.01;100.00;93284.72;5061829;28;20554;-75
2023/08/20 00:35:26;;;;;;;5.82;3.92;;;;;;;17.99;100.00;93283.41;5068186;28;20049;-75
2023/08/20 00:37:52;;;;;;;6.32;4.53;;;;;;;17.99;100.00;93299.78;5050380;28;20106;-75
2023/08/20 00:40:21;;;;;;;4.85;3.75;;;;;;;17.93;100.00;93290.41;5056097;28;20124;-75
2023/08/20 00:42:47;;;;;;;5.95;4.32;;;;;;;17.81;100.00;93289.84;5054557;28;20114;-75
2023/08/20 00:45:16;;;;;;;5.82;4.32;;;;;;;17.67;100.00;93285.09;5056975;28;20090;-75
2023/08/20 00:47:43;;;;;;;5.43;3.97;;;;;;;17.55;100.00;93258.53;5064530;28;20048;-75
2023/08/20 00:50:11;;;;;;;9.50;4.63;;;;;;;17.80;100.00;93289.06;5056931;28;20094;-75
2023/08/20 00:52:38;;;;;;;6.07;4.18;;;;;;;17.65;100.00;93286.38;5057519;28;20045;-75
2023/08/20 00:55:09;;;;;;;6.45;4.47;;;;;;;17.72;100.00;93286.91;5053436;28;20045;-75
2023/08/20 00:57:37;;;;;;;6.18;4.47;;;;;;;17.75;100.00;93283.81;5063303;28;20048;-75
2023/08/20 01:00:08;;;;;;;6.07;4.20;;;;;;;17.80;100.00;93276.06;5060068;28;20334;-75
2023/08/20 01:02:35;;;;;;;6.00;4.22;;;;;;;17.77;100.00;93284.34;5056349;28;20056;-75
2023/08/20 01:05:04;;;;;;;7.22;4.97;;;;;;;17.79;100.00;93289.28;5059592;28;20052;-76
2023/08/20 01:07:44;;;;;;;5.68;4.53;;;;;;;17.79;100.00;93277.09;5064560;28;20484;-75
2023/08/20 01:10:19;;;;;;;6.57;4.03;;;;;;;17.79;100.00;93274.50;5064229;28;20036;-75
2023/08/20 01:12:47;;;;;;;6.45;4.90;;;;;;;17.77;100.00;93279.16;5055547;28;20044;-75
2023/08/20 01:15:15;;;;;;;6.65;4.20;;;;;;;17.64;100.00;93277.81;5060740;28;20155;-75
2023/08/20 01:17:42;;;;;;;6.43;4.65;;;;;;;17.75;100.00;93276.03;5057850;28;20044;-75
2023/08/20 01:20:10;;;;;;;5.95;4.28;;;;;;;17.72;100.00;93277.31;5053537;28;20041;-75
2023/08/20 01:23:19;;;;;;;5.55;4.13;;;;;;;17.84;100.00;93282.31;5055051;28;20144;-75
2023/08/20 01:25:56;;;;;;;5.85;4.35;;;;;;;17.94;100.00;93275.59;5031263;28;20048;-75
2023/08/20 01:28:26;;;;;;;5.47;4.18;;;;;;;17.93;100.00;93267.03;5056473;28;20347;-75
2023/08/20 01:30:55;;;;;;;6.72;4.05;;;;;;;17.94;100.00;93273.78;5056645;28;20049;-75
2023/08/20 01:33:22;;;;;;;6.80;4.05;;;;;;;17.97;100.00;93269.91;5060348;28;20496;-75
2023/08/20 01:35:48;;;;;;;5.47;4.20;;;;;;;18.02;100.00;93270.69;5048626;28;20049;-75
2023/08/20 01:38:15;;;;;;;5.82;4.45;;;;;;;18.07;100.00;93262.16;5054436;28;20049;-75
2023/08/20 01:40:42;;;;;;;6.97;4.10;;;;;;;18.05;100.00;93273.81;5056280;28;20459;-75
2023/08/20 01:43:09;;;;;;;7.22;4.28;;;;;;;18.05;100.00;93263.44;5054390;28;20102;-75
2023/08/20 01:45:37;;;;;;;5.32;4.18;;;;;;;17.98;100.00;93267.03;5067479;28;20558;-75
2023/08/20 01:48:04;;;;;;;5.18;3.97;;;;;;;17.82;100.00;93265.41;5053214;28;20053;-75
2023/08/20 01:50:31;;;;;;;6.80;4.55;;;;;;;17.82;100.00;93270.63;5057993;28;20502;-75
2023/08/20 01:52:58;;;;;;;4.90;4.05;;;;;;;17.77;100.00;93268.75;5067140;28;20048;-75
2023/08/20 01:55:24;;;;;;;5.80;4.18;;;;;;;17.74;100.00;93264.09;5065570;28;20052;-75
2023/08/20 01:57:51;;;;;;;8.68;4.95;;;;;;;17.75;100.00;93257.84;5058192;28;20111;-75
2023/08/20 02:00:18;;;;;;;6.18;4.15;;;;;;;17.77;100.00;93266.94;5056367;28;20049;-75
2023/08/20 02:02:46;;;;;;;6.75;4.20;;;;;;;17.82;100.00;93271.38;5055957;28;20574;-75
2023/08/20 02:05:12;;;;;;;12.23;4.43;;;;;;;17.86;100.00;93261.25;5066896;28;20094;-75
2023/08/20 02:07:39;;;;;;;6.75;4.00;;;;;;;17.81;100.00;93256.06;5053087;28;20463;-75
2023/08/20 02:10:07;;;;;;;6.22;4.20;;;;;;;17.80;100.00;93251.88;5053211;28;20131;-75
2023/08/20 02:12:33;;;;;;;6.07;4.07;;;;;;;17.69;100.00;93235.47;5056288;28;20094;-75
2023/08/20 02:15:00;;;;;;;6.13;4.60;;;;;;;17.70;100.00;93235.22;5061735;28;20546;-75
2023/08/20 02:17:27;;;;;;;5.47;4.38;;;;;;;17.68;100.00;93234.69;5047072;28;20048;-76
2023/08/20 02:19:55;;;;;;;6.22;4.22;;;;;;;17.67;100.00;93245.34;5064390;28;20086;-75
2023/08/20 02:22:22;;;;;;;5.05;4.15;;;;;;;17.60;100.00;93246.34;5066742;28;20099;-75
2023/08/20 02:24:48;;;;;;;5.68;4.13;;;;;;;17.43;100.00;93233.53;5060190;28;20040;-75
2023/08/20 02:27:15;;;;;;;8.88;4.63;;;;;;;17.44;100.00;93242.09;5058434;28;20454;-75
2023/08/20 02:29:42;;;;;;;8.10;4.47;;;;;;;17.36;100.00;93240.78;5051820;28;20052;-75
2023/08/20 02:32:08;;;;;;;5.88;4.70;;;;;;;17.43;100.00;93238.72;5047729;28;20080;-75
2023/08/20 02:34:35;;;;;;;5.18;4.20;;;;;;;17.52;100.00;93241.63;5049739;28;20060;-74
2023/08/20 02:37:03;;;;;;;5.40;4.22;;;;;;;17.50;100.00;93234.09;5065755;28;20044;-74
2023/08/20 02:39:31;;;;;;;7.57;4.78;;;;;;;17.64;100.00;93238.84;5065625;28;20056;-81
2023/08/20 02:41:58;;;;;;;5.82;4.50;;;;;;;17.71;100.00;93239.38;5054290;28;20048;-78
2023/08/20 02:44:24;;;;;;;5.75;4.10;;;;;;;17.73;100.00;93242.50;5055380;28;20045;-76
2023/08/20 02:46:51;;;;;;;6.07;4.57;;;;;;;17.77;100.00;93238.38;5065777;28;20102;-76
2023/08/20 02:49:18;;;;;;;9.35;4.50;;;;;;;17.72;100.00;93237.56;5060873;28;20059;-76
2023/08/20 02:51:45;;;;;;;6.57;4.70;;;;;;;17.82;100.00;93242.81;5057058;28;20481;-76
2023/08/20 02:54:13;;;;;;;6.80;4.90;;;;;;;17.72;100.00;93243.53;5059425;28;20558;-76
2023/08/20 02:56:39;;;;;;;7.43;5.30;;;;;;;17.82;100.00;93237.59;5052461;28;20048;-77
2023/08/20 02:59:06;;;;;;;7.10;5.25;;;;;;;17.82;100.00;93234.25;5049896;28;20114;-76
2023/08/20 03:01:33;;;;;;;8.50;5.13;;;;;;;17.93;100.00;93241.03;5063784;28;20045;-76
2023/08/20 03:03:59;;;;;;;7.45;4.90;;;;;;;17.96;100.00;93245.72;5053419;28;20444;-76
2023/08/20 03:06:26;;;;;;;6.60;4.80;;;;;;;18.03;100.00;93250.69;5066543;28;20040;-76
2023/08/20 03:08:53;;;;;;;7.03;5.40;;;;;;;18.12;100.00;93258.78;5063920;28;20107;-76
2023/08/20 03:11:21;;;;;;;7.28;5.57;;;;;;;18.19;100.00;93261.94;5052141;28;20126;-76
2023/08/20 03:13:47;;;;;;;6.50;4.90;;;;;;;18.23;100.00;93255.19;5060962;28;20098;-76
2023/08/20 03:16:14;;;;;;;9.43;5.55;;;;;;;18.26;100.00;93253.91;5065868;28;20044;-76
2023/08/20 03:18:41;;;;;;;8.02;6.25;;;;;;;18.36;100.00;93256.53;5055895;28;20814;-76
2023/08/20 03:21:08;;;;;;;7.97;5.68;;;;;;;18.44;100.00;93255.25;5061652;28;20045;-76
2023/08/20 03:23:34;;;;;;;9.10;5.95;;;;;;;18.51;100.00;93260.97;5056780;28;20053;-76
2023/08/20 03:26:01;;;;;;;8.93;5.72;;;;;;;18.55;100.00;93258.63;5061893;28;20390;-76
2023/08/20 03:28:29;;;;;;;6.40;5.35;;;;;;;18.62;100.00;93255.78;5060385;28;20048;-76
2023/08/20 03:30:56;;;;;;;7.28;5.53;;;;;;;18.65;100.00;93256.03;5060943;28;20048;-76
2023/08/20 03:33:22;;;;;;;7.88;5.90;;;;;;;18.61;100.00;93241.22;5061904;28;20049;-76
2023/08/20 03:35:49;;;;;;;7.80;5.65;;;;;;;18.68;100.00;93257.34;5058115;28;20048;-76
2023/08/20 03:38:16;;;;;;;7.30;5.45;;;;;;;18.69;100.00;93248.50;5062100;28;20078;-76
2023/08/20 03:40:42;;;;;;;9.13;6.63;;;;;;;18.72;100.00;93244.59;5056352;28;20044;-76
2023/08/20 03:43:09;;;;;;;8.25;5.88;;;;;;;18.75;100.00;93241.50;5054692;28;20045;-76
2023/08/20 03:45:37;;;;;;;7.45;5.78;;;;;;;18.66;100.00;93230.81;5060290;28;20075;-76
2023/08/20 03:48:05;;;;;;;7.82;5.72;;;;;;;18.72;100.00;93229.78;5065502;28;20048;-76
2023/08/20 03:50:31;;;;;;;7.63;5.57;;;;;;;18.77;99.56;93231.59;5069623;28;20048;-76
2023/08/20 03:52:58;;;;;;;8.93;6.18;;;;;;;18.85;99.43;93243.31;5056296;28;20098;-76
2023/08/20 03:55:25;;;;;;;7.43;5.70;;;;;;;18.82;99.28;93245.41;5059210;28;20439;-76
2023/08/20 03:57:51;;;;;;;8.27;5.97;;;;;;;18.88;100.00;93246.16;5063536;28;20101;-76
2023/08/20 04:00:18;;;;;;;8.80;5.88;;;;;;;18.90;100.00;93248.50;5055590;28;20041;-76
2023/08/20 04:02:46;;;;;;;8.73;6.50;;;;;;;18.90;99.21;93245.91;5063544;28;20554;-76
2023/08/20 04:05:13;;;;;;;7.75;6.07;;;;;;;18.88;99.04;93235.75;5065887;28;20045;-76
2023/08/20 04:07:40;;;;;;;8.18;5.88;;;;;;;19.00;98.35;93250.31;5055660;28;20052;-76
2023/08/20 04:10:09;;;;;;;10.20;6.28;;;;;;;19.05;98.05;93247.75;5061648;28;20098;-76
2023/08/20 04:12:36;;;;;;;6.97;5.47;;;;;;;19.05;97.44;93258.97;5055514;28;20049;-76
2023/08/20 04:15:03;;;;;;;8.45;6.05;;;;;;;19.08;97.28;93261.03;5052394;28;20126;-76
2023/08/20 04:17:30;;;;;;;10.60;6.53;;;;;;;19.13;98.09;93259.47;5052925;28;20080;-76
2023/08/20 04:19:58;;;;;;;8.55;6.00;;;;;;;19.07;99.21;93262.06;5054717;28;20052;-76
2023/08/20 04:22:25;;;;;;;11.05;5.95;;;;;;;19.07;99.29;93258.69;5048866;28;20115;-76
2023/08/20 04:24:51;;;;;;;8.35;6.10;;;;;;;19.08;98.12;93258.41;5064384;28;20040;-76
2023/08/20 04:27:18;;;;;;;8.18;5.85;;;;;;;19.16;97.29;93258.97;5054739;28;20044;-76
2023/08/20 04:29:45;;;;;;;9.75;6.13;;;;;;;19.11;98.20;93248.53;5048004;28;20052;-76
2023/08/20 04:32:12;;;;;;;9.80;6.75;;;;;;;19.17;99.05;93261.28;5050483;28;20053;-76
2023/08/20 04:34:38;;;;;;;7.97;6.20;;;;;;;19.16;98.24;93262.31;5048373;28;20139;-76
2023/08/20 04:37:07;;;;;;;10.38;6.45;;;;;;;19.21;99.17;93261.56;5058279;28;20613;-76
2023/08/20 04:39:33;;;;;;;8.20;5.82;;;;;;;19.21;99.82;93259.72;5048475;28;20048;-77
2023/08/20 04:42:00;;;;;;;8.77;5.15;;;;;;;19.26;98.24;93261.56;5056833;28;20122;-76
2023/08/20 04:44:27;;;;;;;8.02;5.10;;;;;;;19.33;99.47;93266.47;5051148;28;20489;-76
2023/08/20 04:46:54;;;;;;;7.85;5.10;;;;;;;19.38;97.99;93273.53;5052774;28;20539;-76
2023/08/20 04:49:21;;;;;;;6.38;5.30;;;;;;;19.41;96.34;93267.75;5051132;28;20052;-76
2023/08/20 04:51:49;;;;;;;9.57;5.43;;;;;;;19.54;97.07;93262.03;5047796;28;20455;-76
2023/08/20 04:54:17;;;;;;;7.47;5.45;;;;;;;19.58;97.13;93257.81;5048128;28;20102;-76
2023/08/20 04:56:43;;;;;;;7.68;5.80;;;;;;;19.67;96.98;93263.28;5053949;28;20052;-76
2023/08/20 04:59:10;;;;;;;9.32;5.68;;;;;;;19.74;96.10;93263.78;5051781;28;20412;-76
2023/08/20 05:01:37;;;;;;;9.45;6.22;;;;;;;19.68;97.64;93248.44;5050460;28;20080;-77
2023/08/20 05:04:04;;;;;;;8.63;6.28;;;;;;;19.69;96.64;93245.56;5050958;28;20060;-76
2023/08/20 05:06:31;;;;;;;8.57;5.38;;;;;;;19.89;96.26;93259.56;5048360;28;20395;-76
2023/08/20 05:08:58;;;;;;;9.75;5.03;;;;;;;19.90;95.89;93250.69;5048358;28;20046;-76
2023/08/20 05:11:26;;;;;;;11.45;5.40;;;;;;;20.01;95.41;93278.31;5052316;28;20061;-76
2023/08/20 05:13:56;;;;;;;8.13;5.32;;;;;;;20.05;95.29;93275.97;5050688;28;20055;-76
2023/08/20 05:16:22;;;;;;;7.15;5.13;;;;;;;20.10;95.88;93270.75;5048422;28;20049;-76
2023/08/20 05:18:49;;;;;;;8.70;5.50;;;;;;;20.13;95.05;93272.00;5048208;28;20710;-77
2023/08/20 05:21:16;;;;;;;9.07;5.70;;;;;;;20.15;95.11;93264.72;5050311;28;20049;-77
2023/08/20 05:23:42;;;;;;;11.93;6.35;;;;;;;20.24;95.59;93276.16;5048223;28;20107;-76
2023/08/20 05:26:11;;;;;;;7.20;5.32;;;;;;;20.22;94.09;93265.19;5050307;28;20052;-76
2023/08/20 05:28:39;;;;;;;10.23;6.05;;;;;;;20.33;93.27;93273.75;5050333;28;20045;-76
2023/08/20 05:31:05;;;;;;;9.55;5.88;;;;;;;20.40;94.12;93273.44;5048319;28;20094;-76
2023/08/20 05:33:32;;;;;;;8.50;5.47;;;;;;;20.53;93.91;93280.69;5048307;28;20102;-76
2023/08/20 05:36:00;;;;;;;7.10;5.25;;;;;;;20.67;93.16;93274.84;5051437;28;20921;-76
2023/08/20 05:38:27;;;;;;;8.02;5.47;;;;;;;20.78;93.51;93275.59;5054035;28;20045;-76
2023/08/20 05:40:54;;;;;;;19.48;5.80;;;;;;;20.94;92.90;93277.06;5058035;28;20821;-76
2023/08/20 05:43:20;;;;;;;8.52;5.70;;;;;;;21.02;93.36;93277.53;5050153;28;20041;-76
2023/08/20 05:45:48;;;;;;;8.88;5.40;;;;;;;21.13;91.87;93276.38;5054249;28;20845;-76
2023/08/20 05:48:15;;;;;;;9.73;6.40;;;;;;;21.16;92.16;93267.97;5048093;28;20497;-76
2023/08/20 05:50:42;;;;;;;7.60;5.78;;;;;;;21.28;92.15;93275.47;5058869;28;20777;-76
2023/08/20 05:53:09;;;;;;;8.20;5.82;;;;;;;21.35;91.40;93268.09;5048145;28;20114;-77
2023/08/20 05:55:35;;;;;;;6.82;5.30;;;;;;;21.47;91.67;93274.78;5065550;28;20918;-77
2023/08/20 05:58:02;;;;;;;8.82;5.80;;;;;;;21.54;89.60;93282.28;5060141;28;20045;-77
2023/08/20 06:00:29;;;;;;;10.15;6.03;;;;;;;21.62;87.01;93279.09;5051074;28;20163;-77
2023/08/20 06:02:57;;;;;;;8.65;5.90;;;;;;;21.73;87.83;93275.34;5054016;28;20049;-77
2023/08/20 06:05:24;;;;;;;9.00;6.10;;;;;;;21.78;87.71;93274.50;5051060;28;20114;-77
2023/08/20 06:07:50;;;;;;;11.52;6.03;;;;;;;21.93;88.46;93281.38;5045966;28;20114;-77
2023/08/20 06:10:17;;;;;;;12.77;6.10;;;;;;;22.01;87.13;93272.16;5056080;28;20049;-77
2023/08/20 06:12:44;;;;;;;12.32;6.03;;;;;;;22.13;85.99;93274.38;5050005;28;20410;-77
2023/08/20 06:15:11;;;;;;;11.95;5.63;;;;;;;22.23;86.86;93286.53;5057118;28;20044;-76
2023/08/20 06:17:37;;;;;;;9.70;5.22;;;;;;;22.21;86.20;93260.66;5067351;28;20057;-75
2023/08/20 06:20:08;;;;;;;7.47;5.13;;;;;;;22.31;85.16;93282.53;5067494;28;20044;-76
2023/08/20 06:22:35;;;;;;;7.97;5.50;;;;;;;22.36;85.69;93282.47;5056434;28;20060;-76
2023/08/20 06:25:02;;;;;;;10.13;5.90;;;;;;;22.40;83.92;93288.69;5047057;28;20045;-76
2023/08/20 06:27:29;;;;;;;19.50;16.45;;;;;;;22.26;82.91;93286.75;5051609;28;20169;-76
2023/08/20 06:29:55;;;;;;;11.45;8.32;;;;;;;22.40;83.15;93286.09;5047175;28;20091;-77
2023/08/20 06:32:22;;;;;;;19.02;7.15;;;;;;;22.54;84.51;93286.19;5047053;28;20133;-77
2023/08/20 06:34:49;;;;;;;11.50;6.38;;;;;;;22.62;85.06;93276.91;5049771;28;20351;-77
2023/08/20 06:37:17;;;;;;;8.82;5.57;;;;;;;22.68;84.09;93276.56;5055342;28;20183;-76
2023/08/20 06:39:44;;;;;;;8.63;4.80;;;;;;;22.53;81.35;93251.38;5048371;28;20048;-76
2023/08/20 06:42:11;;;;;;;8.57;5.32;;;;;;;22.89;81.65;93281.50;5047309;28;20095;-77
2023/08/20 06:44:37;;;;;;;9.15;5.47;;;;;;;23.01;80.93;93285.50;5047719;28;20501;-78
2023/08/20 06:47:04;;;;;;;7.22;5.25;;;;;;;22.85;76.84;93287.59;5060207;28;20040;-77
2023/08/20 06:49:31;;;;;;;6.68;5.03;;;;;;;22.74;76.45;93276.47;5047088;28;20106;-77
2023/08/20 06:51:57;;;;;;;7.32;4.60;;;;;;;22.96;78.49;93283.75;5048090;28;20128;-77
2023/08/20 06:54:25;;;;;;;6.65;4.55;;;;;;;23.07;77.99;93279.13;5050716;28;20040;-76
2023/08/20 06:56:52;;;;;;;9.63;5.50;;;;;;;23.29;78.94;93286.34;5056844;28;20121;-76
2023/08/20 06:59:19;;;;;;;6.03;4.50;;;;;;;23.39;77.72;93279.44;5052784;28;20105;-76
2023/08/20 07:01:46;;;;;;;9.63;4.68;;;;;;;23.38;72.83;93272.63;5053625;28;20045;-75
2023/08/20 07:04:13;;;;;;;5.70;4.07;;;;;;;23.64;72.49;93272.97;5053567;28;20048;-76
2023/08/20 07:06:40;;;;;;;6.45;4.35;;;;;;;23.82;70.44;93281.81;5055601;28;20053;-76
2023/08/20 07:09:07;;;;;;;5.47;3.58;;;;;;;24.07;68.49;93282.38;5054068;28;20631;-75
2023/08/20 07:11:35;;;;;;;7.72;4.50;;;;;;;24.44;68.48;93279.06;5054695;28;21164;-76
2023/08/20 07:14:02;;;;;;;5.30;3.50;;;;;;;24.80;68.32;93267.78;5052736;28;20142;-76
2023/08/20 07:16:29;;;;;;;4.82;3.58;;;;;;;25.01;64.25;93291.78;5053532;28;20168;-76
2023/08/20 07:18:56;;;;;;;6.50;3.90;;;;;;;25.24;64.01;93289.13;5055447;28;20102;-76
2023/08/20 07:21:22;;;;;;;4.70;3.33;;;;;;;25.52;63.29;93290.81;5053159;28;20110;-75
2023/08/20 07:23:49;;;;;;;4.40;3.28;;;;;;;25.47;61.51;93289.09;5052821;28;20045;-75
2023/08/20 07:26:16;;;;;;;6.75;4.10;;;;;;;25.70;62.24;93284.63;5054972;28;20083;-75
2023/08/20 07:28:59;;;;;;;6.40;3.78;;;;;;;26.08;61.19;93293.09;5053096;28;20167;-75
2023/08/20 07:31:27;;;;;;;5.90;3.25;;;;;;;26.11;59.03;93298.50;5052695;28;20126;-75
2023/08/20 07:33:56;;;;;;;6.07;3.05;;;;;;;25.74;57.64;93298.69;5053099;28;20135;-74
2023/08/20 07:36:24;;;;;;;4.47;3.08;;;;;;;25.25;57.50;93295.94;5051531;28;20592;-74
2023/08/20 07:38:51;;;;;;;4.55;3.35;;;;;;;25.28;59.12;93291.94;5056968;28;21142;-74
2023/08/20 07:41:19;;;;;;;5.43;2.90;;;;;;;25.24;59.06;93291.75;5054132;28;20052;-75
2023/08/20 07:43:49;;;;;;;5.03;3.47;;;;;;;25.22;59.32;93293.91;5052767;28;20056;-74
2023/08/20 07:46:16;;;;;;;6.38;3.85;;;;;;;25.15;58.76;93267.28;5052980;28;20049;-76
2023/08/20 07:48:46;;;;;;;5.97;3.38;;;;;;;25.40;60.64;93288.78;5059003;28;20578;-76
2023/08/20 07:51:12;;;;;;;4.97;3.35;;;;;;;25.65;60.21;93294.47;5057978;28;20090;-76
2023/08/20 07:53:39;;;;;;;5.13;2.90;;;;;;;25.72;60.07;93287.72;5050458;28;20049;-76
2023/08/20 07:56:06;;;;;;;4.20;2.72;;;;;;;25.73;58.13;93291.88;5050527;28;20091;-77
2023/08/20 07:58:32;;;;;;;4.65;3.22;;;;;;;25.67;57.49;93290.47;5051500;28;20772;-75
2023/08/20 08:01:00;;;;;;;7.13;4.00;;;;;;;25.80;58.04;93285.41;5052273;28;20106;-76
2023/08/20 08:03:28;;;;;;;4.43;3.30;;;;;;;25.94;58.56;93286.09;5052340;28;20044;-77
2023/08/20 08:05:55;;;;;;;6.43;3.13;;;;;;;26.11;57.63;93290.63;5050844;28;20053;-77
2023/08/20 08:08:22;;;;;;;4.90;3.05;;;;;;;25.74;57.48;93303.19;5049731;28;20098;-76
2023/08/20 08:10:49;;;;;;;4.53;3.40;;;;;;;25.62;56.82;93290.59;5057737;28;20424;-77
2023/08/20 08:13:19;;;;;;;4.53;3.10;;;;;;;25.66;55.28;93303.91;5055441;28;20820;-76
2023/08/20 08:15:46;;;;;;;6.40;3.47;;;;;;;25.79;56.67;93291.75;5050671;28;20059;-77
2023/08/20 08:18:14;;;;;;;6.88;3.40;;;;;;;25.71;56.07;93295.91;5054704;28;20455;-77
2023/08/20 08:20:41;;;;;;;4.20;2.33;;;;;;;25.99;55.58;93296.47;5051948;28;20156;-77
2023/08/20 08:23:08;;;;;;;4.88;3.08;;;;;;;26.38;55.30;93296.00;5052351;28;20141;-77
2023/08/20 08:25:35;;;;;;;3.63;2.50;;;;;;;26.57;53.63;93290.44;5048317;28;20823;-77
2023/08/20 08:28:02;;;;;;;5.82;2.90;;;;;;;26.79;53.47;93297.41;5052027;28;20048;-76
2023/08/20 08:30:29;;;;;;;5.55;2.97;;;;;;;26.39;52.53;93294.91;5052049;28;20056;-75
2023/08/20 08:32:56;;;;;;;5.25;2.78;;;;;;;26.23;51.49;93297.16;5051628;28;20044;-77
2023/08/20 08:35:24;;;;;;;4.20;2.72;;;;;;;26.34;51.66;93316.13;5050414;28;20095;-75
2023/08/20 08:37:51;;;;;;;4.07;2.65;;;;;;;26.21;52.03;93302.75;5050454;28;20122;-75
2023/08/20 08:40:18;;;;;;;7.15;3.55;;;;;;;26.27;52.63;93298.91;5049677;28;20130;-75
2023/08/20 08:42:49;;;;;;;5.65;3.10;;;;;;;26.37;52.19;93283.88;5050998;28;20063;-75
2023/08/20 08:45:19;;;;;;;4.47;2.90;;;;;;;26.75;51.14;93282.53;5051367;28;20082;-75
2023/08/20 08:47:46;;;;;;;4.00;2.80;;;;;;;26.73;50.53;93301.28;5053988;28;20459;-75
2023/08/20 08:50:12;;;;;;;5.63;2.80;;;;;;;26.89;50.39;93290.28;5049976;28;20150;-75
2023/08/20 08:52:42;;;;;;;4.28;2.67;;;;;;;26.75;48.88;93290.44;5051210;28;20459;-75
2023/08/20 08:55:09;;;;;;;7.05;3.08;;;;;;;27.14;49.19;93277.41;5051054;28;20080;-76
2023/08/20 08:57:36;;;;;;;6.15;2.97;;;;;;;27.29;48.50;93287.47;5050293;28;20365;-76
2023/08/20 09:00:03;;;;;;;3.72;2.40;;;;;;;27.40;48.69;93282.63;5051744;28;20044;-76
2023/08/20 09:02:30;;;;;;;4.85;2.97;;;;;;;27.20;49.03;93269.03;5050658;28;20560;-76
2023/08/20 09:04:58;;;;;;;5.60;2.90;;;;;;;27.57;47.61;93292.38;5049190;28;21061;-76
2023/08/20 09:07:25;;;;;;;4.47;3.00;;;;;;;27.69;47.33;93293.59;5049058;28;20135;-76
2023/08/20 09:09:58;;;;;;;4.57;2.72;;;;;;;27.83;46.62;93282.84;5051051;28;21717;-76
2023/08/20 09:12:25;;;;;;;5.65;2.63;;;;;;;27.55;46.39;93273.47;5050404;28;20045;-77
2023/08/20 09:14:54;;;;;;;4.43;3.35;;;;;;;28.06;47.33;93279.94;5051326;28;20099;-76
2023/08/20 09:17:21;;;;;;;4.07;2.72;;;;;;;28.07;46.08;93281.50;5052548;28;20052;-77
2023/08/20 09:19:48;;;;;;;6.80;2.78;;;;;;;27.29;47.47;93271.66;5051316;28;20517;-77
2023/08/20 09:22:16;;;;;;;4.78;2.83;;;;;;;27.26;47.53;93276.78;5050485;28;20053;-77
2023/08/20 09:24:46;;;;;;;5.65;2.92;;;;;;;27.47;47.48;93282.16;5051058;28;20175;-77
2023/08/20 09:27:15;;;;;;;3.22;2.35;;;;;;;27.45;45.32;93287.75;5051387;28;20076;-76
2023/08/20 09:29:46;;;;;;;3.22;2.33;;;;;;;27.14;46.04;93285.31;5047996;28;20455;-76
2023/08/20 09:32:15;;;;;;;5.32;2.50;;;;;;;27.35;46.74;93288.06;5050128;28;20147;-77
2023/08/20 09:34:42;;;;;;;5.60;2.63;;;;;;;27.14;46.27;93301.94;5049969;28;20523;-77
2023/08/20 09:37:10;;;;;;;6.55;2.90;;;;;;;27.32;45.84;93296.63;5057672;28;20053;-76
2023/08/20 09:39:37;;;;;;;4.15;2.45;;;;;;;27.53;45.19;93282.78;5055732;28;20049;-78
2023/08/20 09:42:05;;;;;;;7.95;2.40;;;;;;;27.66;43.29;93296.88;5048130;28;20041;-77
2023/08/20 09:44:36;;;;;;;5.45;2.50;;;;;;;27.74;44.67;93288.16;5048554;28;20045;-81
2023/08/20 09:47:05;;;;;;;4.28;2.85;;;;;;;27.97;44.79;93287.91;5053668;28;20052;-76
2023/08/20 09:49:37;;;;;;;3.80;2.40;;;;;;;28.20;43.88;93291.06;5048511;28;20261;-76
2023/08/20 09:52:07;;;;;;;3.50;2.25;;;;;;;27.98;43.88;93287.59;5050164;28;20198;-75
2023/08/20 09:54:46;;;;;;;4.13;2.25;;;;;;;28.17;43.45;93285.66;5048509;28;20041;-76
2023/08/20 09:57:20;;;;;;;4.10;2.58;;;;;;;28.17;43.46;93277.72;5049225;28;20049;-76
2023/08/20 09:59:50;;;;;;;3.75;2.47;;;;;;;28.20;43.32;93282.34;5048678;28;20487;-75
2023/08/20 10:02:17;;;;;;;5.18;2.28;;;;;;;28.33;42.13;93291.94;5046966;28;20076;-75
2023/08/20 10:04:44;;;;;;;5.25;2.15;;;;;;;28.35;43.75;93276.56;5049447;28;20065;-75
2023/08/20 10:07:12;;;;;;;4.03;2.47;;;;;;;28.23;43.80;93293.09;5050593;28;20087;-74
2023/08/20 10:09:40;;;;;;;4.30;2.05;;;;;;;28.37;43.08;93290.19;5050269;28;20063;-75
2023/08/20 10:12:08;;;;;;;4.43;2.83;;;;;;;28.44;43.14;93300.28;5057221;28;20091;-76
2023/08/20 10:14:35;;;;;;;4.57;2.25;;;;;;;28.22;43.11;93291.50;5047424;28;20087;-76
2023/08/20 10:17:08;;;;;;;3.80;2.25;;;;;;;28.27;41.86;93285.28;5059078;28;20404;-75
2023/08/20 10:19:37;;;;;;;4.93;2.70;;;;;;;28.24;41.82;93299.16;5049254;28;20044;-75
2023/08/20 10:22:04;;;;;;;3.75;2.30;;;;;;;28.34;41.76;93290.84;5050419;28;20098;-75
2023/08/20 10:24:41;;;;;;;3.08;1.98;;;;;;;28.71;41.65;93287.66;5051808;28;20036;-75
2023/08/20 10:27:09;;;;;;;5.00;2.33;;;;;;;28.46;42.30;93290.16;5051252;28;20045;-75
2023/08/20 10:29:37;;;;;;;4.75;2.13;;;;;;;28.46;41.62;93286.75;5050618;28;20120;-76
2023/08/20 10:32:06;;;;;;;3.15;2.20;;;;;;;28.74;41.63;93291.53;5049553;28;20044;-76
2023/08/20 10:34:36;;;;;;;3.75;2.40;;;;;;;28.84;40.52;93271.84;5052046;28;20107;-75
2023/08/20 10:37:04;;;;;;;5.47;2.55;;;;;;;28.91;41.81;93280.06;5060336;28;20045;-76
2023/08/20 10:39:31;;;;;;;4.10;2.40;;;;;;;28.71;41.92;93281.59;5049131;28;20128;-76
2023/08/20 10:42:23;;;;;;;3.13;2.40;;;;;;;28.97;42.06;93285.94;5053357;28;20090;-76
2023/08/20 10:45:08;;;;;;;3.28;2.20;;;;;;;29.16;40.06;93291.50;5048591;28;20417;-75
2023/08/20 10:47:43;;;;;;;4.40;2.53;;;;;;;28.90;39.60;93252.06;5048367;28;20619;-76
2023/08/20 10:50:12;;;;;;;4.82;2.60;;;;;;;29.09;39.21;93280.69;5048468;28;20099;-76
2023/08/20 10:52:47;;;;;;;4.45;2.35;;;;;;;29.29;37.30;93281.75;5050206;28;20049;-76
2023/08/20 10:55:15;;;;;;;4.68;2.20;;;;;;;29.30;38.13;93288.56;5059443;28;20464;-77
2023/08/20 10:57:42;;;;;;;3.08;1.83;;;;;;;29.24;37.58;93286.47;5047516;28;20088;-76
2023/08/20 11:00:11;;;;;;;2.90;1.77;;;;;;;29.52;37.32;93277.97;5051429;28;20044;-75
2023/08/20 11:02:39;;;;;;;3.13;1.90;;;;;;;29.49;37.45;93276.75;5050397;28;20056;-77
2023/08/20 11:05:19;;;;;;;3.35;1.73;;;;;;;29.31;38.14;93276.91;5049313;28;20049;-76
2023/08/20 11:07:47;;;;;;;3.22;1.85;;;;;;;29.41;38.46;93275.72;5048970;28;20055;-77
2023/08/20 11:10:15;;;;;;;4.78;2.05;;;;;;;29.40;39.00;93276.03;5047709;28;20141;-76
2023/08/20 11:12:42;;;;;;;2.90;1.75;;;;;;;29.51;38.36;93268.47;5047868;28;20167;-76
2023/08/20 11:15:11;;;;;;;5.22;1.92;;;;;;;29.44;38.57;93269.75;5048826;28;20048;-76
2023/08/20 11:17:42;;;;;;;3.17;2.08;;;;;;;29.67;39.26;93274.66;5049469;28;20053;-77
2023/08/20 11:20:11;;;;;;;3.30;2.25;;;;;;;29.55;40.09;93280.72;5047409;28;20761;-76
2023/08/20 11:22:39;;;;;;;2.90;2.38;;;;;;;29.72;39.93;93268.41;5050897;28;20088;-77
2023/08/20 11:25:07;;;;;;;3.33;2.00;;;;;;;30.02;40.29;93267.44;5049622;28;20095;-76
2023/08/20 11:27:34;;;;;;;3.13;2.13;;;;;;;29.70;38.36;93273.22;5047090;28;20448;-76
2023/08/20 11:30:01;;;;;;;3.63;2.25;;;;;;;29.68;39.00;93278.88;5051492;28;20049;-76
2023/08/20 11:32:28;;;;;;;3.58;2.25;;;;;;;29.76;38.29;93279.09;5046681;28;20041;-76